createdAt,value
2023-03-08T00:01:04.089Z,3.23
2023-03-08T00:04:27.727Z,3.70
2023-03-08T00:07:54.582Z,3.20
2023-03-08T00:11:18.211Z,2.90
2023-03-08T00:14:43.671Z,3.33
2023-03-08T00:18:07.694Z,2.70
2023-03-08T00:21:31.269Z,3.10
2023-03-08T00:24:55.052Z,3.97
2023-03-08T00:28:18.549Z,4.23
2023-03-08T00:31:43.479Z,3.13
2023-03-08T00:35:08.300Z,3.30
2023-03-08T00:38:33.486Z,4.13
2023-03-08T00:41:57.006Z,4.90
2023-03-08T00:45:20.419Z,4.90
2023-03-08T00:48:45.227Z,4.50
2023-03-08T00:52:09.629Z,4.47
2023-03-08T00:55:33.778Z,4.53
2023-03-08T00:58:57.235Z,4.93
2023-03-08T01:02:21.405Z,3.53
2023-03-08T01:05:49.173Z,3.67
2023-03-08T01:09:13.798Z,3.80
2023-03-08T01:12:37.699Z,3.30
2023-03-08T01:16:01.956Z,4.47
2023-03-08T01:19:25.516Z,4.10
2023-03-08T01:22:50.319Z,3.67
2023-03-08T01:26:16.733Z,3.40
2023-03-08T01:29:40.232Z,3.33
2023-03-08T01:33:03.681Z,3.83
2023-03-08T01:36:29.590Z,3.40
2023-03-08T01:39:54.408Z,3.60
2023-03-08T01:43:31.831Z,3.47
2023-03-08T01:46:55.552Z,3.67
2023-03-08T01:50:23.553Z,3.60
2023-03-08T01:53:47.718Z,3.93
2023-03-08T01:57:21.356Z,3.90
2023-03-08T02:00:45.268Z,2.90
2023-03-08T02:04:10.966Z,4.23
2023-03-08T02:07:34.647Z,3.57
2023-03-08T02:11:00.579Z,3.83
2023-03-08T02:14:27.105Z,4.17
2023-03-08T02:17:50.719Z,4.17
2023-03-08T02:21:14.179Z,3.57
2023-03-08T02:24:39.083Z,3.47
2023-03-08T02:28:04.716Z,4.33
2023-03-08T02:31:28.459Z,3.37
2023-03-08T02:34:51.911Z,3.97
2023-03-08T02:38:18.748Z,4.20
2023-03-08T02:41:43.593Z,3.27
2023-03-08T02:45:11.461Z,4.23
2023-03-08T02:48:35.210Z,3.93
2023-03-08T02:51:59.295Z,3.90
2023-03-08T02:55:23.124Z,3.97
2023-03-08T02:58:48.013Z,4.80
2023-03-08T03:02:11.495Z,3.90
2023-03-08T03:05:35.043Z,3.83
2023-03-08T03:09:02.725Z,3.50
2023-03-08T03:12:26.606Z,2.90
2023-03-08T03:15:51.557Z,2.93
2023-03-08T03:19:15.359Z,2.80
2023-03-08T03:22:38.862Z,3.73
2023-03-08T03:26:07.448Z,4.03
2023-03-08T03:29:31.332Z,4.10
2023-03-08T03:33:06.319Z,4.00
2023-03-08T03:36:30.989Z,4.00
2023-03-08T03:39:55.716Z,3.50
2023-03-08T03:43:20.074Z,2.90
2023-03-08T03:46:43.798Z,2.87
2023-03-08T03:50:12.712Z,3.90
2023-03-08T03:53:49.998Z,2.67
2023-03-08T03:57:15.271Z,3.40
2023-03-08T04:00:40.400Z,3.53
2023-03-08T04:04:15.002Z,3.37
2023-03-08T04:07:42.346Z,3.63
2023-03-08T04:11:06.607Z,3.27
2023-03-08T04:14:30.427Z,2.70
2023-03-08T04:17:54.046Z,2.80
2023-03-08T04:21:20.415Z,3.43
2023-03-08T04:24:45.339Z,3.20
2023-03-08T04:28:14.176Z,3.67
2023-03-08T04:31:38.107Z,3.23
2023-03-08T04:35:06.940Z,3.30
2023-03-08T04:38:33.672Z,3.23
2023-03-08T04:41:59.625Z,3.50
2023-03-08T04:45:27.899Z,2.73
2023-03-08T04:48:55.820Z,3.37
2023-03-08T04:52:22.146Z,3.07
2023-03-08T04:55:46.791Z,3.00
2023-03-08T04:59:11.827Z,2.70
2023-03-08T05:02:35.362Z,3.40
2023-03-08T05:06:00.142Z,3.10
2023-03-08T05:09:23.886Z,3.30
2023-03-08T05:12:49.022Z,3.70
2023-03-08T05:16:15.552Z,3.40
2023-03-08T05:19:39.216Z,3.10
2023-03-08T05:23:04.128Z,3.90
2023-03-08T05:26:33.904Z,4.10
2023-03-08T05:29:58.025Z,4.33
2023-03-08T05:33:23.415Z,3.90
2023-03-08T05:36:47.029Z,3.20
2023-03-08T05:40:12.670Z,4.37
2023-03-08T05:43:39.305Z,4.30
2023-03-08T05:47:06.014Z,2.90
2023-03-08T05:50:31.458Z,3.70
2023-03-08T05:53:55.322Z,3.73
2023-03-08T05:57:18.851Z,3.40
2023-03-08T06:00:43.544Z,3.60
2023-03-08T06:04:07.571Z,4.97
2023-03-08T06:07:36.717Z,4.43
2023-03-08T06:11:06.367Z,5.33
2023-03-08T06:14:30.312Z,4.73
2023-03-08T06:17:55.263Z,4.00
2023-03-08T06:21:22.983Z,4.30
2023-03-08T06:24:55.256Z,4.67
2023-03-08T06:28:30.058Z,4.90
2023-03-08T06:31:54.395Z,4.50
2023-03-08T06:35:19.351Z,4.43
2023-03-08T06:38:50.324Z,4.07
2023-03-08T06:42:15.118Z,3.80
2023-03-08T06:45:39.890Z,4.37
2023-03-08T06:49:04.826Z,3.73
2023-03-08T06:52:34.929Z,3.40
2023-03-08T06:56:02.968Z,4.03
2023-03-08T06:59:29.790Z,4.17
2023-03-08T07:02:53.635Z,3.30
2023-03-08T07:06:17.361Z,3.60
2023-03-08T07:09:41.054Z,3.53
2023-03-08T07:13:04.866Z,3.73
2023-03-08T07:16:29.870Z,3.60
2023-03-08T07:19:53.346Z,3.30
2023-03-08T07:23:16.798Z,3.30
2023-03-08T07:26:40.460Z,2.90
2023-03-08T07:30:04.205Z,2.90
2023-03-08T07:33:29.378Z,2.87
2023-03-08T07:36:52.997Z,3.53
2023-03-08T07:40:18.727Z,3.30
2023-03-08T07:43:42.296Z,3.17
2023-03-08T07:47:14.946Z,2.83
2023-03-08T07:50:39.797Z,2.83
2023-03-08T07:54:03.540Z,3.07
2023-03-08T07:57:27.106Z,3.53
2023-03-08T08:00:50.569Z,3.70
2023-03-08T08:04:14.114Z,3.10
2023-03-08T08:07:39.044Z,3.33
2023-03-08T08:11:03.044Z,3.60
2023-03-08T08:14:27.096Z,3.10
2023-03-08T08:17:50.596Z,3.43
2023-03-08T08:21:17.269Z,3.00
2023-03-08T08:24:42.498Z,3.07
2023-03-08T08:28:06.065Z,3.17
2023-03-08T08:31:31.309Z,3.63
2023-03-08T08:34:54.916Z,3.30
2023-03-08T08:38:18.506Z,2.97
2023-03-08T08:41:43.475Z,3.03
2023-03-08T08:45:08.527Z,3.20
2023-03-08T08:48:33.880Z,2.70
2023-03-08T08:51:57.438Z,2.77
2023-03-08T08:55:21.069Z,2.90
2023-03-08T08:58:48.051Z,3.00
2023-03-08T09:02:13.094Z,3.33
2023-03-08T09:05:42.171Z,3.83
2023-03-08T09:09:06.334Z,3.90
2023-03-08T09:12:31.115Z,2.83
2023-03-08T09:15:56.011Z,3.60
2023-03-08T09:19:19.668Z,3.50
2023-03-08T09:22:43.919Z,3.57
2023-03-08T09:26:07.627Z,4.30
2023-03-08T09:29:31.443Z,4.40
2023-03-08T09:32:56.461Z,4.13
2023-03-08T09:36:21.479Z,3.83
2023-03-08T09:39:45.176Z,4.20
2023-03-08T09:43:25.568Z,4.40
2023-03-08T09:46:58.352Z,3.80
2023-03-08T09:50:40.390Z,4.40
2023-03-08T09:54:09.325Z,3.50
2023-03-08T09:57:41.898Z,3.53
2023-03-08T10:01:29.232Z,3.50
2023-03-08T10:05:13.342Z,4.43
2023-03-08T10:08:49.731Z,4.57
2023-03-08T10:12:24.701Z,4.00
2023-03-08T10:15:55.354Z,2.83
2023-03-08T10:19:26.805Z,3.40
2023-03-08T10:23:01.078Z,3.40
2023-03-08T10:26:27.627Z,3.00
2023-03-08T10:29:54.294Z,3.53
2023-03-08T10:33:21.132Z,2.87
2023-03-08T10:36:52.478Z,2.80
2023-03-08T10:40:21.318Z,2.80
2023-03-08T10:43:51.194Z,2.43
2023-03-08T10:47:22.645Z,2.00
2023-03-08T10:50:46.261Z,2.40
2023-03-08T10:54:16.556Z,1.97
2023-03-08T10:57:45.605Z,1.67
2023-03-08T11:01:28.154Z,2.10
2023-03-08T11:04:54.549Z,2.10
2023-03-08T11:08:22.278Z,2.00
2023-03-08T11:11:47.005Z,2.07
2023-03-08T11:15:16.188Z,1.47
2023-03-08T11:19:01.544Z,1.80
2023-03-08T11:22:40.653Z,1.40
2023-03-08T11:26:20.981Z,1.37
2023-03-08T11:30:04.045Z,0.93
2023-03-08T11:34:01.086Z,1.40
2023-03-08T11:37:36.910Z,1.00
2023-03-08T11:41:15.127Z,1.00
2023-03-08T11:45:00.436Z,1.37
2023-03-08T11:49:00.217Z,0.80
2023-03-08T11:52:35.047Z,1.00
2023-03-08T11:56:21.208Z,1.00
2023-03-08T11:59:52.284Z,1.00
2023-03-08T12:03:20.550Z,1.00
2023-03-08T12:06:48.299Z,1.00
2023-03-08T12:10:22.200Z,1.03
2023-03-08T12:13:49.782Z,0.90
2023-03-08T12:17:21.655Z,0.90
2023-03-08T12:20:46.403Z,0.97
2023-03-08T12:24:36.723Z,1.20
2023-03-08T12:28:06.103Z,0.90
2023-03-08T12:31:42.520Z,1.10
2023-03-08T12:35:09.276Z,0.90
2023-03-08T12:38:41.005Z,0.93
2023-03-08T12:42:17.704Z,0.87
2023-03-08T12:45:44.203Z,1.20
2023-03-08T12:49:29.034Z,0.80
2023-03-08T12:52:53.093Z,1.00
2023-03-08T12:56:26.282Z,1.00
2023-03-08T13:00:00.817Z,0.93
2023-03-08T13:03:38.450Z,1.00
2023-03-08T13:07:29.345Z,0.80
2023-03-08T13:11:05.030Z,0.97
2023-03-08T13:14:41.092Z,0.90
2023-03-08T13:18:16.791Z,1.07
2023-03-08T13:21:49.546Z,0.80
2023-03-08T13:25:30.457Z,1.00
2023-03-08T13:28:57.173Z,0.80
2023-03-08T13:32:24.560Z,0.90
2023-03-08T13:35:59.631Z,0.83
2023-03-08T13:39:25.629Z,0.90
2023-03-08T13:42:57.308Z,0.90
2023-03-08T13:46:24.148Z,0.87
2023-03-08T13:49:51.825Z,0.80
2023-03-08T13:53:22.279Z,0.80
2023-03-08T13:56:45.947Z,0.87
2023-03-08T14:00:28.776Z,0.70
2023-03-08T14:03:55.440Z,0.70
2023-03-08T14:07:25.635Z,0.67
2023-03-08T14:10:56.625Z,0.80
2023-03-08T14:14:27.865Z,0.70
2023-03-08T14:17:51.571Z,0.70
2023-03-08T14:21:18.077Z,0.60
2023-03-08T14:24:44.621Z,0.90
2023-03-08T14:32:06.642Z,0.80
2023-03-08T14:35:34.399Z,0.60
2023-03-08T14:38:59.966Z,0.70
2023-03-08T14:42:28.791Z,0.67
2023-03-08T14:45:56.207Z,0.70
2023-03-08T14:49:24.841Z,0.70
2023-03-08T14:52:51.368Z,0.80
2023-03-08T14:56:17.656Z,0.70
2023-03-08T14:59:42.340Z,0.60
2023-03-08T15:03:06.586Z,0.70
2023-03-08T15:06:35.368Z,0.80
2023-03-08T15:10:03.282Z,0.70
2023-03-08T15:13:26.977Z,0.83
2023-03-08T15:16:51.072Z,0.70
2023-03-08T15:20:16.439Z,0.67
2023-03-08T15:23:42.880Z,0.67
2023-03-08T15:27:06.525Z,0.70
2023-03-08T15:30:31.820Z,0.80
2023-03-08T15:33:55.253Z,0.70
2023-03-08T15:37:18.685Z,0.80
2023-03-08T15:40:44.675Z,0.70
2023-03-08T15:44:08.517Z,0.70
2023-03-08T15:47:31.937Z,0.60
2023-03-08T15:50:58.837Z,0.70
2023-03-08T15:54:22.867Z,0.83
2023-03-08T15:57:48.429Z,0.80
2023-03-08T16:01:12.644Z,0.90
2023-03-08T16:04:36.274Z,0.70
2023-03-08T16:08:02.748Z,0.70
2023-03-08T16:11:27.428Z,0.70
2023-03-08T16:14:54.842Z,0.83
2023-03-08T16:18:18.367Z,0.70
2023-03-08T16:21:41.966Z,0.73
2023-03-08T16:25:06.934Z,0.70
2023-03-08T16:28:30.465Z,0.90
2023-03-08T16:31:55.232Z,0.80
2023-03-08T16:35:19.124Z,0.73
2023-03-08T16:38:43.007Z,0.70
2023-03-08T16:42:06.691Z,0.80
2023-03-08T16:45:30.266Z,0.80
2023-03-08T16:48:56.660Z,0.70
2023-03-08T16:52:21.047Z,0.80
2023-03-08T16:55:44.693Z,1.00
2023-03-08T16:59:08.570Z,0.90
2023-03-08T17:02:32.022Z,0.80
2023-03-08T17:05:57.425Z,0.80
2023-03-08T17:09:21.290Z,0.80
2023-03-08T17:12:44.758Z,0.60
2023-03-08T17:16:12.329Z,0.70
2023-03-08T17:19:35.877Z,0.90
2023-03-08T17:23:00.860Z,0.70
2023-03-08T17:26:25.083Z,0.80
2023-03-08T17:29:48.690Z,0.70
2023-03-08T17:33:13.687Z,0.60
2023-03-08T17:36:37.388Z,0.70
2023-03-08T17:40:02.250Z,0.70
2023-03-08T17:43:26.552Z,0.80
2023-03-08T17:46:50.006Z,0.77
2023-03-08T17:50:14.052Z,0.70
2023-03-08T17:53:38.610Z,0.90
2023-03-08T17:57:03.655Z,0.90
2023-03-08T18:00:27.325Z,0.70
2023-03-08T18:03:51.562Z,1.00
2023-03-08T18:07:20.981Z,0.77
2023-03-08T18:10:44.695Z,0.70
2023-03-08T18:14:12.129Z,0.70
2023-03-08T18:17:36.079Z,0.90
2023-03-08T18:21:12.170Z,0.80
2023-03-08T18:24:37.163Z,0.60
2023-03-08T18:28:00.784Z,0.70
2023-03-08T18:31:27.551Z,0.90
2023-03-08T18:34:51.820Z,0.70
2023-03-08T18:38:16.180Z,0.80
2023-03-08T18:41:40.725Z,0.70
2023-03-08T18:45:06.943Z,0.67
2023-03-08T18:48:31.832Z,0.70
2023-03-08T18:51:56.970Z,0.70
2023-03-08T18:55:20.443Z,0.80
2023-03-08T18:58:44.242Z,0.80
2023-03-08T19:02:11.098Z,0.80
2023-03-08T19:05:37.920Z,0.80
2023-03-08T19:09:02.058Z,0.70
2023-03-08T19:12:25.751Z,0.90
2023-03-08T19:15:49.627Z,0.90
2023-03-08T19:19:15.827Z,0.90
2023-03-08T19:22:40.722Z,0.80
2023-03-08T19:26:31.071Z,1.00
2023-03-08T19:29:54.483Z,0.70
2023-03-08T19:33:30.605Z,0.67
2023-03-08T19:36:56.712Z,0.77
2023-03-08T19:40:22.414Z,0.80
2023-03-08T19:43:46.016Z,0.70
2023-03-08T19:47:10.247Z,0.70
2023-03-08T19:50:33.716Z,0.77
2023-03-08T19:53:57.538Z,0.73
2023-03-08T19:57:22.365Z,0.80
2023-03-08T20:00:46.410Z,0.70
2023-03-08T20:04:11.325Z,0.80
2023-03-08T20:07:37.356Z,0.77
2023-03-08T20:11:00.926Z,0.70
2023-03-08T20:14:27.115Z,0.70
2023-03-08T20:17:50.763Z,0.73
2023-03-08T20:21:14.618Z,0.90
2023-03-08T20:24:38.290Z,0.80
2023-03-08T20:28:02.974Z,0.70
2023-03-08T20:31:30.569Z,0.70
2023-03-08T20:34:54.091Z,0.80
2023-03-08T20:38:17.531Z,0.73
2023-03-08T20:41:41.047Z,0.70
2023-03-08T20:45:05.558Z,0.80
2023-03-08T20:48:30.895Z,0.77
2023-03-08T20:51:55.101Z,0.70
2023-03-08T20:55:18.796Z,0.80
2023-03-08T20:58:42.966Z,0.70
2023-03-08T21:02:06.670Z,0.87
2023-03-08T21:05:35.881Z,0.70
2023-03-08T21:09:00.844Z,0.80
2023-03-08T21:12:24.447Z,0.70
2023-03-08T21:15:48.571Z,0.70
2023-03-08T21:19:12.181Z,0.73
2023-03-08T21:22:38.272Z,0.70
2023-03-08T21:26:02.318Z,0.80
2023-03-08T21:29:28.124Z,0.80
2023-03-08T21:32:51.601Z,0.70
2023-03-08T21:36:16.126Z,0.70
2023-03-08T21:39:41.321Z,0.80
2023-03-08T21:43:05.201Z,0.70
2023-03-08T21:46:28.933Z,0.90
2023-03-08T21:49:52.473Z,0.77
2023-03-08T21:53:16.258Z,0.80
2023-03-08T21:56:41.270Z,0.70
2023-03-08T22:00:06.125Z,0.80
2023-03-08T22:03:35.889Z,0.70
2023-03-08T22:06:59.484Z,0.70
2023-03-08T22:10:22.948Z,1.10
2023-03-08T22:13:51.287Z,0.73
2023-03-08T22:17:14.833Z,0.77
2023-03-08T22:20:38.406Z,0.90
2023-03-08T22:24:03.679Z,0.70
2023-03-08T22:27:28.105Z,0.70
2023-03-08T22:30:52.960Z,0.80
2023-03-08T22:34:16.414Z,0.70
2023-03-08T22:37:40.925Z,0.70
2023-03-08T22:41:12.529Z,0.70
2023-03-08T22:44:36.430Z,0.60
2023-03-08T22:48:01.543Z,0.70
2023-03-08T22:51:27.525Z,0.70
2023-03-08T22:54:50.956Z,0.60
2023-03-08T22:58:14.487Z,0.70
2023-03-08T23:01:38.799Z,0.80
2023-03-08T23:05:03.612Z,0.70
2023-03-08T23:08:27.219Z,0.70
2023-03-08T23:11:51.032Z,0.70
2023-03-08T23:15:14.854Z,0.70
2023-03-08T23:18:38.323Z,0.67
2023-03-08T23:22:03.882Z,0.90
2023-03-08T23:25:27.443Z,0.70
2023-03-08T23:28:51.411Z,1.00
2023-03-08T23:32:14.978Z,0.90
2023-03-08T23:35:38.533Z,0.93
2023-03-08T23:39:04.134Z,0.97
2023-03-08T23:42:27.561Z,0.90
2023-03-08T23:45:51.420Z,0.80
2023-03-08T23:49:16.924Z,0.80
2023-03-08T23:52:40.354Z,0.77
2023-03-08T23:56:06.917Z,0.80
2023-03-08T23:59:30.610Z,0.83
